Time;durP1;ratioP1;P1;durP2;ratioP2;P2;SDS_P1;SDS_P2;PMS_P1;PMS_P2;Temp;Humidity;BMP_temperature;BMP_pressure;BME280_temperature;BME280_humidity;BME280_pressure;Samples;Min_cycle;Max_cycle;Signal;HPM_P1;HPM_P2
2020/12/19 00:04:38;;;;;;;8.67;7.80;;;3.40;99.90;;;;;;6235540;23;20918;-86
2020/12/19 00:16:29;;;;;;;9.73;8.70;;;3.70;99.90;;;;;;6235252;23;20362;-86
2020/12/19 00:22:50;;;;;;;13.63;9.73;;;3.50;99.90;;;;;;6236281;23;20453;-86
2020/12/19 00:25:16;;;;;;;9.63;8.13;;;3.40;99.90;;;;;;6207509;23;20884;-86
2020/12/19 00:27:44;;;;;;;9.80;8.37;;;3.40;99.90;;;;;;6207156;23;20726;-86
2020/12/19 00:30:15;;;;;;;9.83;8.40;;;3.60;99.90;;;;;;6208454;23;20183;-85
2020/12/19 00:32:42;;;;;;;9.63;8.73;;;3.60;99.90;;;;;;6208251;23;20477;-85
2020/12/19 00:35:10;;;;;;;9.23;7.80;;;3.70;99.90;;;;;;6207914;23;20451;-84
2020/12/19 00:37:45;;;;;;;11.60;8.80;;;3.80;99.90;;;;;;6207782;23;20424;-85
2020/12/19 00:40:25;;;;;;;11.97;9.50;;;3.80;99.90;;;;;;6208495;23;20458;-85
2020/12/19 00:46:23;;;;;;;7.43;6.70;;;3.70;99.90;;;;;;6237671;23;20373;-85
2020/12/19 00:49:12;;;;;;;8.63;7.83;;;3.40;99.90;;;;;;6210876;23;20390;-86
2020/12/19 00:51:38;;;;;;;8.73;7.47;;;3.30;99.90;;;;;;6202812;23;20393;-85
2020/12/19 00:54:04;;;;;;;11.33;8.90;;;3.30;99.90;;;;;;6210678;23;20769;-85
2020/12/19 00:56:29;;;;;;;10.93;9.80;;;3.40;99.90;;;;;;6209309;23;20189;-85
2020/12/19 00:59:17;;;;;;;13.33;10.27;;;3.40;99.90;;;;;;6209664;23;20205;-85
2020/12/19 01:07:40;;;;;;;11.40;9.30;;;3.70;99.90;;;;;;6233646;23;20381;-85
2020/12/19 01:10:16;;;;;;;11.30;9.87;;;3.60;99.90;;;;;;6207677;23;20386;-85
2020/12/19 01:15:40;;;;;;;29.67;17.37;;;3.70;99.90;;;;;;6237749;23;20432;-85
2020/12/19 01:18:16;;;;;;;32.40;20.03;;;3.70;99.90;;;;;;6209042;23;20394;-85
2020/12/19 01:20:50;;;;;;;19.27;14.03;;;3.60;99.90;;;;;;6208804;23;20433;-85
2020/12/19 01:23:25;;;;;;;14.43;12.70;;;3.60;99.90;;;;;;6209491;23;20398;-84
2020/12/19 01:25:53;;;;;;;14.37;12.43;;;3.50;99.90;;;;;;6181428;23;20965;-84
2020/12/19 01:28:28;;;;;;;12.17;10.53;;;3.30;99.90;;;;;;6209069;23;20728;-85
2020/12/19 01:31:17;;;;;;;12.13;9.83;;;3.20;99.90;;;;;;6208576;23;20481;-85
2020/12/19 01:33:56;;;;;;;12.37;11.00;;;3.30;99.90;;;;;;6233569;23;20382;-84
2020/12/19 01:37:04;;;;;;;11.20;8.60;;;3.20;99.90;;;;;;6235797;23;20405;-85
2020/12/19 01:42:31;;;;;;;7.90;7.10;;;3.00;99.90;;;;;;6237587;23;21181;-84
2020/12/19 01:45:01;;;;;;;11.43;7.90;;;3.00;99.90;;;;;;6209187;23;20485;-85
2020/12/19 01:47:35;;;;;;;10.60;7.13;;;2.90;99.90;;;;;;6208442;23;20908;-85
2020/12/19 01:50:06;;;;;;;8.93;7.60;;;2.80;99.90;;;;;;6210174;23;20439;-85
2020/12/19 01:55:46;;;;;;;10.60;9.37;;;2.90;99.90;;;;;;6237799;23;20363;-85
2020/12/19 01:58:13;;;;;;;10.67;9.63;;;3.00;99.90;;;;;;6208496;23;20393;-85
2020/12/19 02:00:40;;;;;;;11.30;10.03;;;3.10;99.90;;;;;;6209286;23;20957;-85
2020/12/19 02:13:26;;;;;;;12.93;9.90;;;3.30;99.90;;;;;;6236897;23;20401;-85
2020/12/19 02:16:02;;;;;;;11.50;10.40;;;3.30;99.90;;;;;;6229514;23;20400;-84
2020/12/19 02:18:40;;;;;;;11.30;9.73;;;3.30;99.90;;;;;;6208092;23;20455;-85
2020/12/19 02:21:15;;;;;;;12.53;10.60;;;3.40;99.90;;;;;;6234436;23;20449;-85
2020/12/19 02:24:06;;;;;;;13.87;10.20;;;3.50;99.90;;;;;;6236632;23;20403;-84
2020/12/19 02:27:00;;;;;;;12.60;11.30;;;3.40;99.90;;;;;;6232948;23;20439;-85
2020/12/19 02:29:35;;;;;;;11.50;10.30;;;3.30;99.90;;;;;;6232686;23;20392;-85
2020/12/19 02:38:21;;;;;;;11.00;9.47;;;3.20;99.90;;;;;;6246251;23;20366;-85
2020/12/19 02:44:11;;;;;;;12.27;9.77;;;3.20;99.90;;;;;;6236816;23;21005;-85
2020/12/19 02:52:36;;;;;;;10.33;9.27;;;3.20;99.90;;;;;;6230731;23;20792;-85
2020/12/19 02:55:20;;;;;;;10.90;9.80;;;3.10;99.90;;;;;;6209247;23;20528;-85
2020/12/19 02:57:59;;;;;;;11.60;9.60;;;3.10;99.90;;;;;;6207656;23;20436;-86
2020/12/19 03:00:39;;;;;;;10.60;9.50;;;3.10;99.90;;;;;;6208425;23;20418;-85
2020/12/19 03:03:22;;;;;;;11.07;9.87;;;3.00;99.90;;;;;;6235115;23;20496;-86
2020/12/19 03:08:39;;;;;;;10.87;9.73;;;3.10;99.90;;;;;;6244475;23;20363;-86
2020/12/19 03:11:19;;;;;;;11.40;10.30;;;3.00;99.90;;;;;;6209007;23;20396;-85
2020/12/19 03:13:50;;;;;;;17.47;11.80;;;3.10;99.90;;;;;;6207476;23;20473;-85
2020/12/19 03:16:20;;;;;;;19.00;10.83;;;3.00;99.90;;;;;;6207767;23;20391;-85
2020/12/19 03:24:20;;;;;;;15.17;9.70;;;2.90;99.90;;;;;;6245677;23;20350;-85
2020/12/19 03:26:52;;;;;;;13.80;10.97;;;3.00;99.90;;;;;;6208494;23;20496;-84
2020/12/19 03:29:28;;;;;;;13.40;11.00;;;3.00;99.90;;;;;;6209232;23;20395;-85
2020/12/19 03:31:59;;;;;;;11.97;10.67;;;3.00;99.90;;;;;;6207794;23;20390;-85
2020/12/19 03:37:25;;;;;;;13.97;10.60;;;3.00;99.90;;;;;;6236111;23;20374;-85
2020/12/19 03:40:04;;;;;;;11.40;10.20;;;2.90;99.90;;;;;;6208091;23;20389;-85
2020/12/19 03:42:32;;;;;;;12.10;10.87;;;2.90;99.90;;;;;;6203349;23;20446;-86
2020/12/19 03:45:00;;;;;;;10.83;9.70;;;2.90;99.90;;;;;;6208093;23;20461;-85
2020/12/19 03:53:51;;;;;;;13.50;10.17;;;2.90;99.90;;;;;;6210768;23;20387;-85
2020/12/19 03:59:46;;;;;;;12.13;10.43;;;2.80;99.90;;;;;;6235033;23;20758;-84
2020/12/19 04:02:44;;;;;;;12.50;10.20;;;2.80;99.90;;;;;;6208574;23;20445;-84
2020/12/19 04:28:47;;;;;;;10.23;8.97;;;2.50;99.90;;;;;;6240036;23;20425;-85
2020/12/19 04:34:37;;;;;;;12.20;10.60;;;2.50;99.90;;;;;;6238611;23;20419;-85
2020/12/19 04:50:17;;;;;;;12.97;10.27;;;2.50;99.90;;;;;;6237305;23;20382;-84
2020/12/19 04:55:56;;;;;;;10.23;9.20;;;2.50;99.90;;;;;;6238526;23;20947;-84
2020/12/19 05:12:27;;;;;;;10.20;9.13;;;2.40;99.90;;;;;;6236357;23;20444;-85
2020/12/19 05:50:33;;;;;;;9.70;8.70;;;2.40;99.90;;;;;;6235769;23;20425;-85
2020/12/19 05:53:28;;;;;;;10.73;9.00;;;2.40;99.90;;;;;;6179211;23;20411;-85
2020/12/19 05:56:00;;;;;;;11.50;9.50;;;2.40;99.90;;;;;;6233348;23;20391;-85
2020/12/19 05:59:20;;;;;;;11.57;9.33;;;2.40;99.90;;;;;;6198127;23;20393;-85
2020/12/19 06:08:52;;;;;;;10.23;9.23;;;2.40;99.90;;;;;;6205809;23;20410;-84
2020/12/19 06:11:31;;;;;;;13.07;11.67;;;2.40;99.90;;;;;;6206801;23;20367;-85
2020/12/19 06:14:11;;;;;;;15.40;13.90;;;2.40;99.90;;;;;;6156019;23;20405;-84
2020/12/19 06:17:36;;;;;;;14.27;12.63;;;2.30;99.90;;;;;;6172909;23;20393;-85
2020/12/19 06:20:13;;;;;;;13.10;11.77;;;2.30;99.90;;;;;;6200095;23;20473;-85
2020/12/19 06:22:41;;;;;;;12.27;11.03;;;2.20;99.90;;;;;;6197120;23;20457;-85
2020/12/19 06:25:23;;;;;;;10.83;9.83;;;2.20;99.90;;;;;;6179869;23;20398;-84
2020/12/19 06:28:42;;;;;;;12.93;10.93;;;2.20;99.90;;;;;;5078269;28;20539;-86
2020/12/19 06:31:14;;;;;;;15.60;11.00;;;2.40;99.90;;;;;;5056263;28;20545;-86
2020/12/19 06:33:46;;;;;;;12.43;9.40;;;2.40;99.90;;;;;;5056379;28;20526;-86
2020/12/19 06:36:27;;;;;;;14.03;10.87;;;2.40;99.90;;;;;;5056118;28;20455;-87
2020/12/19 06:39:47;;;;;;;12.13;10.70;;;2.30;99.90;;;;;;5055598;28;20446;-84
2020/12/19 06:49:35;;;;;;;13.23;11.00;;;2.20;99.90;;;;;;5042206;28;20448;-85
2020/12/19 06:52:19;;;;;;;66.97;35.20;;;2.20;99.90;;;;;;5057630;28;20452;-84
2020/12/19 06:57:57;;;;;;;11.17;9.90;;;2.20;99.90;;;;;;5055872;28;20957;-84
2020/12/19 07:00:35;;;;;;;10.60;9.50;;;2.20;99.90;;;;;;5053680;28;20451;-84
2020/12/19 07:03:03;;;;;;;11.37;10.27;;;2.10;99.90;;;;;;5054694;28;20498;-84
2020/12/19 07:05:34;;;;;;;11.07;9.50;;;2.10;99.90;;;;;;5056690;28;20600;-84
2020/12/19 07:08:27;;;;;;;12.47;10.50;;;2.20;99.90;;;;;;5054437;28;20512;-84
2020/12/19 07:11:06;;;;;;;12.43;11.13;;;2.10;99.90;;;;;;5053939;28;20624;-84
2020/12/19 07:13:52;;;;;;;12.23;9.60;;;2.10;99.90;;;;;;5056307;28;20449;-84
2020/12/19 07:16:46;;;;;;;9.40;8.50;;;2.00;99.90;;;;;;5054624;28;20445;-84
2020/12/19 07:19:27;;;;;;;10.43;8.60;;;2.00;99.90;;;;;;5054344;28;20489;-84
2020/12/19 07:21:58;;;;;;;9.10;7.83;;;1.90;99.90;;;;;;5055468;28;20446;-83
2020/12/19 07:24:26;;;;;;;11.43;10.23;;;1.90;99.90;;;;;;5056186;28;20434;-83
2020/12/19 07:26:53;;;;;;;12.87;11.53;;;1.90;99.90;;;;;;5055907;28;20535;-83
2020/12/19 07:29:21;;;;;;;15.90;12.40;;;1.80;99.90;;;;;;5054420;28;20483;-83
2020/12/19 07:31:56;;;;;;;10.83;9.83;;;1.90;99.90;;;;;;5052438;28;21382;-82
2020/12/19 07:34:23;;;;;;;12.70;11.47;;;1.90;99.90;;;;;;5058722;28;20421;-83
2020/12/19 07:36:51;;;;;;;12.70;11.40;;;1.90;99.90;;;;;;5053744;28;20441;-83
2020/12/19 07:39:17;;;;;;;13.23;11.40;;;1.90;99.90;;;;;;5043495;28;22391;-83
2020/12/19 07:41:44;;;;;;;15.50;11.07;;;1.90;99.90;;;;;;5042569;28;20447;-83
2020/12/19 07:44:18;;;;;;;12.00;10.80;;;2.00;99.90;;;;;;5039780;28;20441;-84
2020/12/19 07:46:54;;;;;;;13.90;11.23;;;2.00;99.90;;;;;;5040546;28;20832;-83
2020/12/19 07:49:26;;;;;;;11.30;10.10;;;2.00;99.90;;;;;;5040852;28;20450;-85
2020/12/19 07:52:07;;;;;;;13.23;11.30;;;1.90;99.90;;;;;;5039457;28;20473;-84
2020/12/19 07:54:36;;;;;;;17.13;14.60;;;2.00;99.90;;;;;;5040319;28;21018;-83
2020/12/19 07:57:04;;;;;;;13.77;12.30;;;2.00;99.90;;;;;;5039879;28;20537;-83
2020/12/19 07:59:30;;;;;;;17.10;13.27;;;2.10;99.90;;;;;;5040039;28;20484;-83
2020/12/19 08:02:07;;;;;;;16.90;13.50;;;2.10;99.90;;;;;;5042912;28;20482;-84
2020/12/19 08:04:39;;;;;;;19.30;14.17;;;2.20;99.90;;;;;;5040035;28;20450;-84
2020/12/19 08:07:23;;;;;;;14.27;12.77;;;2.20;99.90;;;;;;5041805;28;20866;-83
2020/12/19 08:10:14;;;;;;;13.03;11.63;;;2.30;99.90;;;;;;5044040;28;21984;-84
2020/12/19 08:13:01;;;;;;;13.40;12.00;;;2.50;99.90;;;;;;5042523;28;20778;-83
2020/12/19 08:15:43;;;;;;;16.80;14.23;;;2.60;99.90;;;;;;5041848;28;20446;-84
2020/12/19 08:18:23;;;;;;;15.80;12.77;;;2.70;99.90;;;;;;5040740;28;20914;-84
2020/12/19 08:21:05;;;;;;;15.13;12.80;;;2.90;99.90;;;;;;5041497;28;20995;-84
2020/12/19 08:23:37;;;;;;;15.13;13.60;;;3.00;99.90;;;;;;5043336;28;20588;-83
2020/12/19 08:26:19;;;;;;;15.37;13.97;;;3.00;99.90;;;;;;5043965;28;20471;-84
2020/12/19 08:29:03;;;;;;;42.77;34.93;;;3.10;99.90;;;;;;5061087;28;20499;-85
2020/12/19 08:31:37;;;;;;;35.97;32.17;;;3.40;99.90;;;;;;5060723;28;20445;-85
2020/12/19 08:40:58;;;;;;;13.67;12.47;;;6.70;99.90;;;;;;4964691;28;20428;-86
2020/12/19 08:46:20;;;;;;;14.10;12.70;;;7.90;99.90;;;;;;5059145;28;20584;-86
2020/12/19 08:48:50;;;;;;;16.90;13.87;;;7.70;99.90;;;;;;5056452;28;20822;-85
2020/12/19 08:51:30;;;;;;;36.37;23.40;;;7.50;99.90;;;;;;5058192;28;20867;-85
2020/12/19 08:58:04;;;;;;;9.60;8.60;;;7.10;99.90;;;;;;5060905;28;20924;-85
2020/12/19 09:09:58;;;;;;;8.70;7.83;;;6.80;99.90;;;;;;4970688;23;20583;-91
2020/12/19 09:12:24;;;;;;;9.97;8.30;;;6.70;99.90;;;;;;4951872;28;20521;-90
2020/12/19 09:14:53;;;;;;;8.90;8.10;;;6.70;99.90;;;;;;4955722;28;20534;-89
2020/12/19 09:17:29;;;;;;;8.90;8.10;;;6.90;99.90;;;;;;4951941;28;20450;-89
2020/12/19 09:20:28;;;;;;;8.23;7.43;;;7.00;99.90;;;;;;4952329;28;20446;-88
2020/12/19 09:26:23;;;;;;;8.73;7.90;;;7.20;99.90;;;;;;4941604;28;20978;-83
2020/12/19 09:28:53;;;;;;;8.37;7.57;;;7.40;99.90;;;;;;4935422;28;20447;-83
2020/12/19 09:35:11;;;;;;;8.50;7.70;;;7.40;99.90;;;;;;4930068;28;20446;-85
2020/12/19 09:41:39;;;;;;;8.47;7.57;;;7.90;99.90;;;;;;4930510;29;20452;-87
2020/12/19 09:44:40;;;;;;;8.90;8.10;;;7.70;99.90;;;;;;4913364;29;20459;-86
2020/12/19 09:47:48;;;;;;;9.03;8.13;;;8.30;99.90;;;;;;4913137;29;21047;-85
2020/12/19 09:50:35;;;;;;;10.43;9.30;;;8.90;99.90;;;;;;4911417;29;20506;-84
2020/12/19 09:53:02;;;;;;;8.73;7.93;;;8.80;99.90;;;;;;4933404;29;20454;-83
2020/12/19 09:55:28;;;;;;;9.50;8.67;;;8.50;99.90;;;;;;4939226;29;20438;-83
2020/12/19 09:57:55;;;;;;;9.07;8.17;;;8.80;99.90;;;;;;4940938;29;20458;-83
2020/12/19 10:00:23;;;;;;;9.67;8.77;;;9.40;99.90;;;;;;4921379;29;21015;-83
2020/12/19 10:02:53;;;;;;;8.73;7.93;;;10.30;99.90;;;;;;4936248;29;20447;-83
2020/12/19 10:05:20;;;;;;;8.93;8.20;;;11.30;98.00;;;;;;4948870;28;21142;-84
2020/12/19 10:07:47;;;;;;;8.80;7.90;;;11.60;96.10;;;;;;4921348;29;20489;-82
2020/12/19 10:10:17;;;;;;;8.43;7.73;;;12.20;95.40;;;;;;4935962;28;21195;-81
2020/12/19 10:12:45;;;;;;;9.83;8.97;;;12.50;94.30;;;;;;4932632;28;20505;-85
2020/12/19 10:15:11;;;;;;;9.80;8.90;;;13.00;94.40;;;;;;4937315;28;20857;-84
2020/12/19 10:17:38;;;;;;;9.77;8.87;;;13.00;94.10;;;;;;4940367;28;20426;-85
2020/12/19 10:20:39;;;;;;;8.93;8.03;;;13.60;92.70;;;;;;4933851;29;20451;-85
2020/12/19 10:23:07;;;;;;;9.40;8.60;;;14.30;90.40;;;;;;4933320;29;20979;-85
2020/12/19 10:25:49;;;;;;;8.83;8.03;;;14.60;86.60;;;;;;4934108;28;20794;-85
2020/12/19 10:28:57;;;;;;;9.70;8.90;;;15.10;82.90;;;;;;4936801;29;20582;-87
2020/12/19 10:32:16;;;;;;;;;;;;;;;;;;;;;
2020/12/19 10:35:48;;;;;;;9.50;8.80;;;16.10;74.00;;;;;;4934134;29;20496;-85
2020/12/19 10:38:15;;;;;;;11.23;9.50;;;16.10;73.40;;;;;;4935880;28;20463;-84
2020/12/19 10:40:48;;;;;;;9.43;8.60;;;16.60;71.80;;;;;;4933371;29;20984;-84
2020/12/19 10:43:13;;;;;;;8.90;8.20;;;16.80;68.30;;;;;;4933832;29;20443;-84
2020/12/19 10:45:41;;;;;;;10.10;9.20;;;16.30;69.20;;;;;;4935742;28;20490;-84
2020/12/19 10:48:07;;;;;;;10.37;9.57;;;16.40;69.80;;;;;;4938000;29;20187;-84
2020/12/19 10:50:33;;;;;;;11.50;10.50;;;17.10;66.90;;;;;;4931354;29;20501;-84
2020/12/19 10:53:03;;;;;;;9.50;8.70;;;17.00;67.60;;;;;;4935217;28;20242;-84
2020/12/19 10:55:29;;;;;;;10.13;9.33;;;17.90;64.30;;;;;;4917358;29;20191;-84
2020/12/19 10:57:55;;;;;;;10.73;9.80;;;18.70;59.80;;;;;;4929638;29;20485;-84
2020/12/19 11:00:21;;;;;;;10.63;9.83;;;19.60;56.90;;;;;;4932565;28;20290;-85
2020/12/19 11:02:47;;;;;;;10.20;9.30;;;20.40;53.60;;;;;;4936400;29;20187;-84
2020/12/19 11:05:15;;;;;;;9.43;8.73;;;20.50;51.70;;;;;;4932218;28;20971;-86
2020/12/19 11:07:41;;;;;;;12.33;11.13;;;21.00;49.90;;;;;;4937851;28;20190;-84
2020/12/19 11:10:06;;;;;;;14.53;13.17;;;21.60;47.30;;;;;;4935795;28;20451;-83
2020/12/19 11:12:32;;;;;;;14.20;12.33;;;21.10;47.20;;;;;;4943568;28;20195;-82
2020/12/19 11:14:58;;;;;;;10.60;9.80;;;21.10;47.00;;;;;;4935016;28;20183;-83
2020/12/19 11:17:26;;;;;;;10.23;9.47;;;21.90;45.90;;;;;;4930468;29;20223;-84
2020/12/19 11:19:53;;;;;;;12.70;11.70;;;22.10;45.50;;;;;;4925721;29;20566;-84
2020/12/19 11:22:19;;;;;;;12.47;11.47;;;21.90;44.70;;;;;;4928823;29;20455;-84
2020/12/19 11:24:44;;;;;;;14.27;12.97;;;22.20;43.60;;;;;;4932446;29;20801;-84
2020/12/19 11:27:11;;;;;;;11.83;10.70;;;22.50;42.80;;;;;;4932968;29;20555;-84
2020/12/19 11:29:39;;;;;;;11.20;10.20;;;22.80;41.70;;;;;;4938259;28;20194;-81
2020/12/19 11:32:05;;;;;;;9.80;9.00;;;23.00;41.40;;;;;;4933932;29;20525;-81
2020/12/19 11:34:31;;;;;;;9.40;8.70;;;23.10;40.80;;;;;;4937382;29;20526;-81
2020/12/19 11:36:58;;;;;;;9.10;8.30;;;23.50;42.70;;;;;;4936245;29;20480;-84
2020/12/19 11:39:24;;;;;;;7.90;7.40;;;22.60;40.90;;;;;;4931427;29;20183;-82
2020/12/19 11:41:52;;;;;;;7.63;7.13;;;23.40;41.20;;;;;;4933163;28;20435;-81
2020/12/19 11:44:18;;;;;;;8.73;8.07;;;23.20;40.90;;;;;;4939580;28;20532;-81
2020/12/19 11:46:45;;;;;;;8.00;7.40;;;22.70;40.60;;;;;;4938500;28;20820;-81
2020/12/19 11:49:11;;;;;;;8.67;8.07;;;23.20;41.70;;;;;;4939986;29;20183;-82
2020/12/19 11:51:41;;;;;;;8.83;8.13;;;23.80;40.70;;;;;;4936493;29;20592;-85
2020/12/19 11:54:11;;;;;;;8.53;7.93;;;24.20;40.10;;;;;;4939945;29;20176;-85
2020/12/19 11:56:46;;;;;;;9.97;9.20;;;23.40;39.60;;;;;;4931439;29;20471;-84
2020/12/19 11:59:18;;;;;;;7.80;7.30;;;23.70;40.50;;;;;;4935131;28;21111;-85
2020/12/19 12:02:05;;;;;;;8.80;8.00;;;24.30;39.00;;;;;;4936739;29;20443;-88
2020/12/19 12:04:31;;;;;;;7.93;7.40;;;25.10;38.80;;;;;;4933166;28;20450;-83
2020/12/19 12:06:58;;;;;;;7.43;6.97;;;25.00;36.60;;;;;;4936774;29;20450;-84
2020/12/19 12:09:24;;;;;;;7.03;6.53;;;25.40;36.50;;;;;;4933694;29;20467;-84
2020/12/19 12:12:31;;;;;;;7.20;6.63;;;25.90;35.70;;;;;;4934319;28;21018;-84
2020/12/19 12:15:19;;;;;;;8.20;7.50;;;27.20;34.40;;;;;;4938560;29;20596;-87
2020/12/19 12:17:48;;;;;;;7.60;7.00;;;26.60;33.10;;;;;;4934650;28;20486;-86
2020/12/19 12:20:20;;;;;;;9.50;8.80;;;26.40;34.20;;;;;;4938669;29;20434;-85
2020/12/19 12:22:53;;;;;;;8.80;8.20;;;24.30;36.80;;;;;;4930983;29;20453;-86
2020/12/19 12:25:19;;;;;;;8.70;7.97;;;23.80;38.90;;;;;;4932444;28;21000;-86
2020/12/19 12:27:47;;;;;;;9.43;8.63;;;23.30;39.50;;;;;;4935607;28;20498;-84
2020/12/19 12:30:13;;;;;;;8.60;7.90;;;21.70;41.50;;;;;;4934806;28;20198;-87
2020/12/19 12:32:39;;;;;;;8.40;7.60;;;21.60;43.90;;;;;;4931517;29;20522;-85
2020/12/19 12:38:01;;;;;;;8.30;7.70;;;22.50;42.60;;;;;;4943393;29;20238;-86
2020/12/19 12:40:26;;;;;;;8.57;7.77;;;22.90;41.00;;;;;;4930721;29;20542;-86
2020/12/19 12:42:52;;;;;;;7.47;6.97;;;23.10;40.30;;;;;;4934968;29;20555;-86
2020/12/19 12:45:18;;;;;;;6.87;6.37;;;24.00;39.20;;;;;;4937980;28;20272;-85
2020/12/19 12:47:43;;;;;;;6.57;6.07;;;23.70;37.60;;;;;;4936767;29;20183;-85
2020/12/19 12:50:09;;;;;;;7.70;7.10;;;23.80;37.80;;;;;;4928671;29;20190;-84
2020/12/19 12:52:35;;;;;;;7.03;6.37;;;23.80;37.90;;;;;;4933429;28;20218;-83
2020/12/19 12:55:00;;;;;;;8.53;7.80;;;23.70;38.30;;;;;;4949662;28;20186;-83
2020/12/19 12:57:26;;;;;;;6.80;6.20;;;23.90;37.70;;;;;;4938526;28;20223;-87
2020/12/19 13:00:25;;;;;;;7.10;6.50;;;23.60;38.40;;;;;;4934727;29;20213;-87
2020/12/19 13:02:51;;;;;;;6.47;5.87;;;23.30;38.50;;;;;;4937287;29;20481;-85
2020/12/19 13:05:19;;;;;;;6.97;6.37;;;23.40;38.60;;;;;;4942248;29;20446;-84
2020/12/19 13:07:45;;;;;;;6.80;6.30;;;22.90;38.70;;;;;;4942991;28;20195;-83
2020/12/19 13:10:39;;;;;;;7.03;6.43;;;23.00;40.40;;;;;;4939332;28;20954;-83
2020/12/19 13:13:04;;;;;;;5.50;5.00;;;23.40;39.40;;;;;;4941167;29;20548;-83
2020/12/19 13:15:30;;;;;;;6.87;6.27;;;23.60;37.30;;;;;;4938972;28;20439;-85
2020/12/19 13:18:01;;;;;;;5.77;5.30;;;23.00;38.90;;;;;;4940876;28;20230;-84
2020/12/19 13:20:31;;;;;;;7.27;5.27;;;22.50;38.80;;;;;;4933952;28;20449;-86
2020/12/19 13:22:57;;;;;;;6.13;5.63;;;22.90;39.20;;;;;;4929619;28;20458;-84
2020/12/19 13:25:24;;;;;;;6.60;6.10;;;22.90;38.70;;;;;;4935133;29;20546;-82
2020/12/19 13:27:50;;;;;;;6.80;6.30;;;23.30;38.70;;;;;;4934203;29;20454;-84
2020/12/19 13:30:19;;;;;;;7.17;6.47;;;23.10;38.50;;;;;;4935639;28;20442;-84
2020/12/19 13:32:48;;;;;;;7.47;6.03;;;22.90;39.40;;;;;;4936961;29;20471;-85
2020/12/19 13:35:55;;;;;;;6.30;5.80;;;22.60;40.00;;;;;;4933131;28;20439;-86
2020/12/19 13:39:01;;;;;;;6.43;5.90;;;23.60;38.90;;;;;;4905204;29;20474;-86
2020/12/19 13:47:03;;;;;;;5.73;5.33;;;22.50;39.70;;;;;;4943780;29;20442;-86
2020/12/19 13:49:32;;;;;;;6.70;6.10;;;22.20;40.50;;;;;;4936283;28;20501;-86
2020/12/19 13:55:24;;;;;;;6.23;5.63;;;22.00;40.10;;;;;;4937085;28;20668;-85
2020/12/19 13:58:09;;;;;;;5.20;4.80;;;19.90;43.30;;;;;;4940224;29;20836;-85
2020/12/19 14:00:46;;;;;;;6.17;5.57;;;18.00;46.60;;;;;;4938916;29;20438;-83
2020/12/19 14:06:09;;;;;;;6.00;5.50;;;15.30;52.70;;;;;;4937103;29;20443;-86
2020/12/19 14:08:34;;;;;;;7.97;6.00;;;14.60;54.90;;;;;;4940920;29;20486;-86
2020/12/19 14:11:03;;;;;;;7.13;6.40;;;14.40;56.60;;;;;;4941632;29;20443;-86
2020/12/19 14:13:28;;;;;;;11.23;6.70;;;14.40;58.10;;;;;;4941326;28;20224;-87
2020/12/19 14:15:54;;;;;;;8.80;8.00;;;14.50;58.20;;;;;;4937801;28;21047;-86
2020/12/19 14:18:20;;;;;;;10.57;6.70;;;14.60;58.30;;;;;;4934294;28;20665;-88
2020/12/19 14:20:45;;;;;;;7.87;7.07;;;14.60;57.70;;;;;;4942511;28;20559;-86
2020/12/19 14:23:11;;;;;;;6.20;5.20;;;14.70;58.10;;;;;;4935933;28;20195;-85
2020/12/19 14:25:36;;;;;;;5.50;4.90;;;14.60;57.10;;;;;;4934344;28;20203;-86
2020/12/19 14:28:02;;;;;;;5.60;4.80;;;14.40;57.70;;;;;;4946749;28;20198;-86
2020/12/19 14:30:28;;;;;;;4.93;4.43;;;14.20;58.50;;;;;;4945272;28;20720;-86
2020/12/19 14:32:54;;;;;;;5.30;4.50;;;14.10;58.90;;;;;;4935462;28;20191;-86
2020/12/19 14:35:31;;;;;;;5.60;4.67;;;14.00;59.80;;;;;;4945793;28;20199;-84
2020/12/19 14:37:57;;;;;;;4.87;4.30;;;13.80;60.60;;;;;;4937345;28;21003;-86
2020/12/19 14:40:23;;;;;;;8.27;4.97;;;13.50;62.00;;;;;;4930609;28;20225;-87
2020/12/19 14:42:48;;;;;;;5.17;4.67;;;13.40;64.10;;;;;;4941962;28;20260;-86
2020/12/19 14:45:14;;;;;;;5.63;5.13;;;13.30;65.00;;;;;;4935285;28;20610;-85
2020/12/19 14:47:51;;;;;;;6.03;5.30;;;13.20;66.80;;;;;;4930807;28;20755;-85
2020/12/19 14:50:17;;;;;;;5.53;5.03;;;12.90;70.70;;;;;;4940453;28;20191;-85
2020/12/19 16:13:32;;;;;;;5.40;4.90;;;9.40;99.90;;;;;;4945367;23;20553;-87
2020/12/19 16:16:06;;;;;;;9.33;6.23;;;9.30;99.90;;;;;;4919263;29;20491;-88
2020/12/19 16:18:43;;;;;;;4.90;4.40;;;9.30;99.90;;;;;;4919897;29;20476;-88
2020/12/19 16:21:12;;;;;;;5.83;5.23;;;9.10;99.90;;;;;;4918804;29;20688;-89
2020/12/19 16:23:55;;;;;;;4.77;4.37;;;9.00;99.90;;;;;;4916156;29;20446;-88
2020/12/19 16:26:32;;;;;;;6.90;5.93;;;9.00;99.90;;;;;;4920137;29;21048;-86
2020/12/19 16:29:15;;;;;;;8.23;6.30;;;8.90;99.90;;;;;;4915279;29;20940;-88
2020/12/19 16:31:46;;;;;;;9.17;7.40;;;9.00;99.90;;;;;;4919277;29;20598;-87
2020/12/19 16:34:34;;;;;;;7.73;6.60;;;9.10;99.90;;;;;;4921236;29;21069;-86
2020/12/19 16:37:43;;;;;;;7.10;6.40;;;9.10;99.90;;;;;;4920117;29;20856;-89
2020/12/19 17:47:57;;;;;;;10.50;9.03;;;8.50;99.90;;;;;;4923015;29;20480;-91
2020/12/19 17:50:36;;;;;;;10.23;9.13;;;8.50;99.90;;;;;;4879173;29;20452;-92
2020/12/19 17:53:07;;;;;;;11.63;9.60;;;8.50;99.90;;;;;;4867777;29;20515;-91
2020/12/19 17:58:41;;;;;;;10.70;8.97;;;8.40;99.90;;;;;;4928279;29;20986;-90
2020/12/19 18:01:42;;;;;;;9.00;7.90;;;8.40;99.90;;;;;;4927015;29;20436;-90
2020/12/19 18:04:28;;;;;;;9.57;8.57;;;8.20;99.90;;;;;;4921486;29;20910;-90
2020/12/19 18:10:11;;;;;;;9.63;8.30;;;8.10;99.90;;;;;;4914652;29;20486;-91
2020/12/19 18:12:42;;;;;;;9.97;8.27;;;8.10;99.90;;;;;;4923497;29;20445;-90
2020/12/19 19:07:50;;;;;;;8.57;7.40;;;7.70;99.90;;;;;;4876889;29;20479;-90
2020/12/19 19:11:09;;;;;;;9.57;8.20;;;7.50;99.90;;;;;;4792236;29;20469;-88
2020/12/19 19:54:22;;;;;;;11.23;9.70;;;7.00;99.90;;;;;;4934488;29;20437;-89
2020/12/19 19:56:52;;;;;;;11.93;8.80;;;6.90;99.90;;;;;;4931948;29;20469;-89
2020/12/19 19:59:17;;;;;;;9.63;8.20;;;6.80;99.90;;;;;;4935544;29;20501;-88
2020/12/19 20:02:38;;;;;;;10.00;7.83;;;6.80;99.90;;;;;;4932031;29;20456;-87
2020/12/19 20:12:41;;;;;;;8.73;7.50;;;6.80;99.90;;;;;;4936693;29;21027;-89
2020/12/19 20:15:09;;;;;;;8.03;6.90;;;6.80;99.90;;;;;;4930157;28;20486;-88
2020/12/19 20:17:54;;;;;;;8.87;7.97;;;6.70;99.90;;;;;;4934607;29;20529;-89
2020/12/19 20:20:22;;;;;;;9.63;8.10;;;6.80;99.90;;;;;;4933476;29;20452;-89
2020/12/19 20:22:49;;;;;;;9.60;7.50;;;6.80;99.90;;;;;;4932995;29;20449;-89
2020/12/19 20:25:21;;;;;;;12.20;9.47;;;6.80;99.90;;;;;;4932903;29;20526;-90
2020/12/19 20:27:47;;;;;;;8.07;7.27;;;6.80;99.90;;;;;;4928332;29;20547;-88
2020/12/19 20:30:13;;;;;;;9.70;7.50;;;6.90;99.90;;;;;;4933029;29;20447;-88
2020/12/19 20:32:39;;;;;;;8.87;8.00;;;6.90;99.90;;;;;;4928751;29;20491;-89
2020/12/19 20:35:10;;;;;;;8.43;7.63;;;6.90;99.90;;;;;;4936014;29;21237;-87
2020/12/19 20:37:41;;;;;;;9.47;7.80;;;6.90;99.90;;;;;;4929790;29;20321;-87
2020/12/19 20:40:07;;;;;;;9.03;7.80;;;6.90;99.90;;;;;;4939582;29;20440;-90
2020/12/19 20:43:07;;;;;;;8.50;7.30;;;6.70;99.90;;;;;;4931861;29;20815;-90
2020/12/19 20:45:38;;;;;;;9.70;7.77;;;6.70;99.90;;;;;;4929531;28;20230;-90
2020/12/19 20:48:58;;;;;;;7.60;6.90;;;6.70;99.90;;;;;;4930361;28;21009;-88
2020/12/19 20:51:39;;;;;;;10.30;7.97;;;6.70;99.90;;;;;;4937687;29;20497;-88
2020/12/19 20:54:05;;;;;;;8.30;7.40;;;6.70;99.90;;;;;;4935551;29;20623;-89
2020/12/19 20:59:28;;;;;;;7.23;6.30;;;6.60;99.90;;;;;;4942764;29;20579;-88
2020/12/19 21:01:56;;;;;;;7.57;6.87;;;6.60;99.90;;;;;;4946670;28;20867;-88
2020/12/19 21:07:12;;;;;;;6.83;6.13;;;6.60;99.90;;;;;;4934072;29;20448;-87
2020/12/19 21:09:56;;;;;;;7.73;6.93;;;6.40;99.90;;;;;;4935061;29;20445;-87
2020/12/19 21:12:22;;;;;;;7.70;6.80;;;6.40;99.90;;;;;;4934942;29;20273;-89
2020/12/19 21:14:48;;;;;;;8.10;6.87;;;6.40;99.90;;;;;;4945195;29;20885;-89
2020/12/19 21:17:14;;;;;;;8.20;7.40;;;6.40;99.90;;;;;;4949306;28;20319;-89
2020/12/19 21:19:42;;;;;;;7.60;6.80;;;6.30;99.90;;;;;;4943164;29;20187;-89
2020/12/19 21:22:26;;;;;;;7.40;6.70;;;6.30;99.90;;;;;;4939600;29;20187;-88
2020/12/19 21:25:02;;;;;;;8.37;6.77;;;6.30;99.90;;;;;;4942383;29;20484;-89
2020/12/19 21:27:28;;;;;;;7.73;6.90;;;6.40;99.90;;;;;;4940240;29;20871;-89
2020/12/19 21:29:54;;;;;;;6.87;6.20;;;6.30;99.90;;;;;;4942367;29;20189;-87
2020/12/19 21:32:20;;;;;;;7.07;6.37;;;6.30;99.90;;;;;;4945367;29;20190;-90
2020/12/19 21:34:45;;;;;;;9.47;7.60;;;6.30;99.90;;;;;;4938356;29;20194;-86
2020/12/19 21:37:16;;;;;;;8.00;7.10;;;6.20;99.90;;;;;;4937059;29;20482;-85
2020/12/19 21:39:54;;;;;;;7.67;6.80;;;6.10;99.90;;;;;;4941557;29;20194;-86
2020/12/19 21:42:30;;;;;;;9.23;6.70;;;6.10;99.90;;;;;;4935897;29;20536;-86
2020/12/19 21:45:24;;;;;;;6.63;5.93;;;6.00;99.90;;;;;;4937791;29;20439;-86
2020/12/19 21:48:02;;;;;;;6.50;5.90;;;6.00;99.90;;;;;;4926548;29;20486;-86